Time;durP1;ratioP1;P1;durP2;ratioP2;P2;SDS_P1;SDS_P2;PMS_P1;PMS_P2;Temp;Humidity;BMP_temperature;BMP_pressure;BME280_temperature;BME280_humidity;BME280_pressure;Samples;Min_cycle;Max_cycle;Signal;HPM_P1;HPM_P2
2023/11/05 00:00:43;;;;;;;1.52;0.40;;;;;;;;;;6253460;22;20059;-67
2023/11/05 00:03:09;;;;;;;1.05;0.40;;;;;;;;;;6259480;22;20502;-68
2023/11/05 00:05:34;;;;;;;0.70;0.30;;;;;;;;;;6256259;22;20087;-67
2023/11/05 00:07:59;;;;;;;0.85;0.38;;;;;;;;;;6256706;22;20035;-70
2023/11/05 00:10:25;;;;;;;2.03;0.50;;;;;;;;;;6256704;22;20493;-68
2023/11/05 00:12:50;;;;;;;1.20;0.45;;;;;;;;;;6255955;22;20086;-70
2023/11/05 00:15:15;;;;;;;0.55;0.25;;;;;;;;;;6257102;22;20635;-68
2023/11/05 00:17:41;;;;;;;1.13;0.38;;;;;;;;;;6247116;22;20073;-70
2023/11/05 00:20:07;;;;;;;1.02;0.40;;;;;;;;;;6253226;22;20054;-71
2023/11/05 00:22:35;;;;;;;1.10;0.43;;;;;;;;;;6254697;22;19999;-69
2023/11/05 00:25:03;;;;;;;0.95;0.40;;;;;;;;;;6256879;22;20058;-68
2023/11/05 00:27:31;;;;;;;0.95;0.30;;;;;;;;;;6256671;22;20031;-70
2023/11/05 00:29:57;;;;;;;1.30;0.40;;;;;;;;;;6257551;22;20597;-69
2023/11/05 00:32:22;;;;;;;0.95;0.35;;;;;;;;;;6257410;22;20031;-69
2023/11/05 00:34:50;;;;;;;1.45;0.30;;;;;;;;;;6257457;22;20039;-68
2023/11/05 00:37:15;;;;;;;1.05;0.35;;;;;;;;;;6259063;22;20524;-68
2023/11/05 00:39:42;;;;;;;1.02;0.22;;;;;;;;;;6255475;22;20019;-69
2023/11/05 00:42:08;;;;;;;0.73;0.38;;;;;;;;;;6250662;22;20006;-69
2023/11/05 00:44:35;;;;;;;0.88;0.30;;;;;;;;;;6250749;22;20003;-68
2023/11/05 00:47:06;;;;;;;0.80;0.30;;;;;;;;;;6243650;22;20123;-69
2023/11/05 00:49:31;;;;;;;0.73;0.32;;;;;;;;;;6253928;22;20007;-69
2023/11/05 00:51:56;;;;;;;1.05;0.30;;;;;;;;;;6256916;22;20000;-69
2023/11/05 00:54:21;;;;;;;0.82;0.30;;;;;;;;;;6261324;22;20640;-68
2023/11/05 00:56:47;;;;;;;0.57;0.30;;;;;;;;;;6244945;22;20038;-68
2023/11/05 00:59:12;;;;;;;0.95;0.30;;;;;;;;;;6259390;22;20071;-69
2023/11/05 01:01:39;;;;;;;0.98;0.30;;;;;;;;;;6253988;22;20004;-67
2023/11/05 01:04:05;;;;;;;0.45;0.30;;;;;;;;;;6246167;22;20672;-70
2023/11/05 01:06:30;;;;;;;1.08;0.30;;;;;;;;;;6245903;22;20004;-70
2023/11/05 01:08:57;;;;;;;0.60;0.30;;;;;;;;;;6255704;22;20000;-69
2023/11/05 01:11:23;;;;;;;0.50;0.30;;;;;;;;;;6257044;22;20003;-72
2023/11/05 01:13:48;;;;;;;1.33;0.40;;;;;;;;;;6256789;22;19999;-70
2023/11/05 01:16:13;;;;;;;1.02;0.38;;;;;;;;;;6253681;22;20116;-69
2023/11/05 01:18:39;;;;;;;1.20;0.40;;;;;;;;;;6260973;22;20006;-70
2023/11/05 01:21:04;;;;;;;1.17;0.40;;;;;;;;;;6254573;22;20038;-70
2023/11/05 01:23:32;;;;;;;0.32;0.22;;;;;;;;;;6258698;22;20568;-69
2023/11/05 01:25:57;;;;;;;0.65;0.30;;;;;;;;;;6255436;22;20007;-69
2023/11/05 01:28:22;;;;;;;0.40;0.20;;;;;;;;;;6255683;22;20165;-69
2023/11/05 01:30:48;;;;;;;0.55;0.20;;;;;;;;;;6255005;22;20006;-70
2023/11/05 01:33:13;;;;;;;0.45;0.30;;;;;;;;;;6256289;22;20471;-70
2023/11/05 01:35:41;;;;;;;0.52;0.20;;;;;;;;;;6254818;22;20432;-70
2023/11/05 01:38:06;;;;;;;0.82;0.30;;;;;;;;;;6255879;22;20010;-70
2023/11/05 01:40:31;;;;;;;1.55;0.45;;;;;;;;;;6255358;22;20107;-69
2023/11/05 01:42:57;;;;;;;0.68;0.32;;;;;;;;;;6256241;22;20011;-68
2023/11/05 01:45:23;;;;;;;0.77;0.28;;;;;;;;;;6258869;22;20425;-70
2023/11/05 01:47:48;;;;;;;1.45;0.40;;;;;;;;;;6253201;22;20654;-70
2023/11/05 01:50:16;;;;;;;2.05;0.40;;;;;;;;;;6258415;22;20747;-69
2023/11/05 01:52:42;;;;;;;0.95;0.30;;;;;;;;;;6255515;22;20004;-70
2023/11/05 01:55:08;;;;;;;0.95;0.30;;;;;;;;;;6255370;22;20073;-70
2023/11/05 01:57:33;;;;;;;1.17;0.32;;;;;;;;;;6255065;22;20610;-70
2023/11/05 01:59:59;;;;;;;1.30;0.30;;;;;;;;;;6258019;22;20034;-69
2023/11/05 02:02:29;;;;;;;0.82;0.40;;;;;;;;;;6253786;22;20007;-70
2023/11/05 02:04:55;;;;;;;0.80;0.30;;;;;;;;;;6255062;22;20099;-69
2023/11/05 02:07:20;;;;;;;0.52;0.30;;;;;;;;;;6255761;22;20090;-70
2023/11/05 02:09:45;;;;;;;1.60;0.50;;;;;;;;;;6254864;22;20000;-69
2023/11/05 02:12:11;;;;;;;1.20;0.40;;;;;;;;;;6257846;22;19999;-70
2023/11/05 02:14:36;;;;;;;1.02;0.40;;;;;;;;;;6256592;22;20083;-70
2023/11/05 02:17:01;;;;;;;1.10;0.30;;;;;;;;;;6256534;22;20050;-70
2023/11/05 02:19:27;;;;;;;2.10;0.43;;;;;;;;;;6257477;22;20451;-70
2023/11/05 02:21:58;;;;;;;2.38;0.40;;;;;;;;;;6254171;22;20009;-70
2023/11/05 02:24:26;;;;;;;2.83;0.50;;;;;;;;;;6259027;22;20003;-69
2023/11/05 02:26:58;;;;;;;1.15;0.40;;;;;;;;;;6256344;22;20050;-69
2023/11/05 02:29:23;;;;;;;2.38;0.45;;;;;;;;;;6255804;22;20035;-70
2023/11/05 02:31:48;;;;;;;1.35;0.50;;;;;;;;;;6254682;22;20605;-69
2023/11/05 02:34:16;;;;;;;1.83;0.57;;;;;;;;;;6255875;22;20099;-71
2023/11/05 02:36:44;;;;;;;2.40;0.65;;;;;;;;;;6252089;22;20014;-70
2023/11/05 02:39:09;;;;;;;1.60;0.50;;;;;;;;;;6249212;22;20080;-71
2023/11/05 02:41:36;;;;;;;2.38;0.63;;;;;;;;;;6255165;22;20010;-69
2023/11/05 02:44:01;;;;;;;1.55;0.60;;;;;;;;;;6253761;22;20004;-70
2023/11/05 02:46:26;;;;;;;1.42;0.50;;;;;;;;;;6265064;22;20019;-70
2023/11/05 02:48:51;;;;;;;2.15;0.60;;;;;;;;;;6286417;22;20018;-70
2023/11/05 02:51:17;;;;;;;1.90;0.60;;;;;;;;;;6260640;22;20078;-69
2023/11/05 02:53:42;;;;;;;1.67;0.55;;;;;;;;;;6287726;22;20656;-70
2023/11/05 02:56:08;;;;;;;1.23;0.43;;;;;;;;;;6261049;22;20061;-70
2023/11/05 02:58:33;;;;;;;1.38;0.40;;;;;;;;;;6257052;22;20010;-70
2023/11/05 03:00:59;;;;;;;1.52;0.50;;;;;;;;;;6287880;22;20082;-70
2023/11/05 03:03:27;;;;;;;1.50;0.55;;;;;;;;;;6259025;22;20003;-69
2023/11/05 03:05:54;;;;;;;1.08;0.40;;;;;;;;;;6288118;22;19999;-71
2023/11/05 03:08:19;;;;;;;1.95;0.50;;;;;;;;;;6289675;22;20014;-69
2023/11/05 03:10:45;;;;;;;1.45;0.50;;;;;;;;;;6285928;22;20000;-69
2023/11/05 03:13:10;;;;;;;1.40;0.50;;;;;;;;;;6288623;22;20003;-70
2023/11/05 03:15:35;;;;;;;1.48;0.40;;;;;;;;;;6259158;22;20050;-70
2023/11/05 03:18:01;;;;;;;1.83;0.40;;;;;;;;;;6289170;22;19999;-70
2023/11/05 03:20:26;;;;;;;1.40;0.40;;;;;;;;;;6259419;22;19999;-69
2023/11/05 03:22:51;;;;;;;0.88;0.30;;;;;;;;;;6287542;22;19999;-70
2023/11/05 03:25:16;;;;;;;1.40;0.32;;;;;;;;;;6260457;22;20038;-70
2023/11/05 03:27:44;;;;;;;2.03;0.60;;;;;;;;;;6288708;22;19998;-70
2023/11/05 03:30:09;;;;;;;1.25;0.40;;;;;;;;;;6260791;22;20013;-71
2023/11/05 03:32:35;;;;;;;0.90;0.38;;;;;;;;;;6262192;22;20555;-71
2023/11/05 03:35:00;;;;;;;1.75;0.55;;;;;;;;;;6288159;22;20657;-69
2023/11/05 03:37:25;;;;;;;0.82;0.38;;;;;;;;;;6261483;22;20051;-69
2023/11/05 03:39:50;;;;;;;1.15;0.38;;;;;;;;;;6258472;22;20025;-70
2023/11/05 03:42:16;;;;;;;1.17;0.50;;;;;;;;;;6257519;22;20671;-70
2023/11/05 03:44:44;;;;;;;1.88;0.50;;;;;;;;;;6257218;22;20000;-70
2023/11/05 03:47:09;;;;;;;0.93;0.40;;;;;;;;;;6287432;22;20363;-70
2023/11/05 03:49:34;;;;;;;1.40;0.50;;;;;;;;;;6260613;22;20842;-70
2023/11/05 03:52:02;;;;;;;1.52;0.50;;;;;;;;;;6260165;22;20000;-71
2023/11/05 03:54:28;;;;;;;0.70;0.30;;;;;;;;;;6289211;22;20072;-70
2023/11/05 03:56:55;;;;;;;1.35;0.40;;;;;;;;;;6257706;22;20599;-69
2023/11/05 03:59:20;;;;;;;2.45;0.50;;;;;;;;;;6288387;22;19995;-70
2023/11/05 04:01:52;;;;;;;1.20;0.50;;;;;;;;;;6251745;22;20569;-70
2023/11/05 04:04:17;;;;;;;1.35;0.50;;;;;;;;;;6277431;22;20002;-71
2023/11/05 04:06:43;;;;;;;2.38;0.50;;;;;;;;;;6278277;22;20029;-69
2023/11/05 04:09:08;;;;;;;1.73;0.50;;;;;;;;;;6286223;22;20003;-70
2023/11/05 04:11:34;;;;;;;1.20;0.43;;;;;;;;;;6289237;22;20651;-71
2023/11/05 04:14:00;;;;;;;1.27;0.50;;;;;;;;;;6256501;22;20411;-70
2023/11/05 04:16:25;;;;;;;1.75;0.50;;;;;;;;;;6260473;22;20007;-70
2023/11/05 04:18:50;;;;;;;2.67;0.60;;;;;;;;;;6285308;22;20026;-70
2023/11/05 04:21:16;;;;;;;1.10;0.47;;;;;;;;;;6259072;22;19999;-70
2023/11/05 04:23:41;;;;;;;1.75;0.50;;;;;;;;;;6260168;22;20027;-70
2023/11/05 04:26:06;;;;;;;1.45;0.43;;;;;;;;;;6288273;22;19999;-70
2023/11/05 04:28:34;;;;;;;1.60;0.60;;;;;;;;;;6289720;22;19995;-70
2023/11/05 04:31:02;;;;;;;2.13;0.50;;;;;;;;;;6257715;22;20003;-71
2023/11/05 04:33:27;;;;;;;1.42;0.40;;;;;;;;;;6262172;22;20007;-70
2023/11/05 04:35:52;;;;;;;1.83;0.60;;;;;;;;;;6288778;22;20129;-70
2023/11/05 04:38:18;;;;;;;1.95;0.63;;;;;;;;;;6289599;22;20474;-70
2023/11/05 04:40:45;;;;;;;1.13;0.40;;;;;;;;;;6290736;22;20003;-71
2023/11/05 04:43:12;;;;;;;1.58;0.65;;;;;;;;;;6287628;22;20012;-70
2023/11/05 04:45:39;;;;;;;2.50;0.50;;;;;;;;;;6289686;22;20006;-70
2023/11/05 04:48:05;;;;;;;2.00;0.63;;;;;;;;;;6258314;22;20019;-70
2023/11/05 04:50:32;;;;;;;1.88;0.80;;;;;;;;;;6287790;22;20019;-70
2023/11/05 04:52:58;;;;;;;1.80;0.70;;;;;;;;;;6258621;22;20638;-70
2023/11/05 04:55:24;;;;;;;2.03;0.70;;;;;;;;;;6260824;22;20018;-70
2023/11/05 04:57:51;;;;;;;2.25;0.70;;;;;;;;;;6289755;22;20070;-69
2023/11/05 05:00:19;;;;;;;1.83;0.70;;;;;;;;;;6259835;22;20192;-71
2023/11/05 05:02:47;;;;;;;1.77;0.63;;;;;;;;;;6259907;22;20003;-70
2023/11/05 05:05:12;;;;;;;4.30;0.80;;;;;;;;;;6258667;22;20056;-70
2023/11/05 05:07:37;;;;;;;1.85;0.70;;;;;;;;;;6261675;22;20022;-71
2023/11/05 05:10:03;;;;;;;2.15;0.60;;;;;;;;;;6258292;22;20007;-70
2023/11/05 05:12:28;;;;;;;1.77;0.65;;;;;;;;;;6259970;22;20005;-70
2023/11/05 05:14:53;;;;;;;2.83;0.82;;;;;;;;;;6289399;22;20082;-69
2023/11/05 05:17:19;;;;;;;1.85;0.65;;;;;;;;;;6288314;22;20000;-70
2023/11/05 05:19:44;;;;;;;2.95;0.80;;;;;;;;;;6262306;22;20026;-70
2023/11/05 05:22:10;;;;;;;2.17;0.90;;;;;;;;;;6259389;22;20780;-69
2023/11/05 05:24:35;;;;;;;2.35;0.80;;;;;;;;;;6261770;22;19999;-71
2023/11/05 05:27:00;;;;;;;2.42;0.70;;;;;;;;;;6288230;22;20519;-70
2023/11/05 05:29:26;;;;;;;3.05;0.95;;;;;;;;;;6262203;22;20004;-70
2023/11/05 05:31:51;;;;;;;2.10;0.75;;;;;;;;;;6286858;22;20007;-70
2023/11/05 05:34:17;;;;;;;1.88;0.60;;;;;;;;;;6287115;22;20000;-71
2023/11/05 05:36:42;;;;;;;2.40;0.70;;;;;;;;;;6285488;22;20086;-71
2023/11/05 05:39:07;;;;;;;1.92;0.60;;;;;;;;;;6287250;22;20324;-69
2023/11/05 05:41:35;;;;;;;1.20;0.50;;;;;;;;;;6288768;22;20031;-70
2023/11/05 05:44:03;;;;;;;1.30;0.50;;;;;;;;;;6258734;22;20060;-70
2023/11/05 05:46:28;;;;;;;1.17;0.50;;;;;;;;;;6284493;22;20165;-69
2023/11/05 05:48:54;;;;;;;1.40;0.55;;;;;;;;;;6245540;22;20811;-71
2023/11/05 05:51:19;;;;;;;2.92;0.70;;;;;;;;;;6247934;22;20011;-70
2023/11/05 05:53:44;;;;;;;2.13;0.50;;;;;;;;;;6248199;22;20416;-70
2023/11/05 05:56:10;;;;;;;1.60;0.50;;;;;;;;;;6248347;22;20011;-70
2023/11/05 05:58:38;;;;;;;1.67;0.50;;;;;;;;;;6279007;22;20605;-69
2023/11/05 06:01:03;;;;;;;1.20;0.50;;;;;;;;;;6274579;22;19995;-71
2023/11/05 06:03:28;;;;;;;1.65;0.50;;;;;;;;;;6250591;22;20011;-73
2023/11/05 06:05:54;;;;;;;1.77;0.40;;;;;;;;;;6247147;22;20409;-70
2023/11/05 06:08:22;;;;;;;1.27;0.40;;;;;;;;;;6277474;22;20206;-69
2023/11/05 06:10:47;;;;;;;2.30;0.50;;;;;;;;;;6274703;22;20007;-73
2023/11/05 06:13:15;;;;;;;1.15;0.47;;;;;;;;;;6248335;22;19999;-70
2023/11/05 06:15:40;;;;;;;1.70;0.50;;;;;;;;;;6288081;22;20007;-73
2023/11/05 06:18:06;;;;;;;1.75;0.50;;;;;;;;;;6247217;22;20017;-70
2023/11/05 06:20:33;;;;;;;1.77;0.50;;;;;;;;;;6248272;22;20464;-70
2023/11/05 06:22:59;;;;;;;1.77;0.50;;;;;;;;;;6276070;22;20076;-70
2023/11/05 06:25:24;;;;;;;1.27;0.40;;;;;;;;;;6289225;22;20007;-70
2023/11/05 06:27:49;;;;;;;1.40;0.50;;;;;;;;;;6287259;22;19999;-72
2023/11/05 06:30:15;;;;;;;1.25;0.40;;;;;;;;;;6289452;22;20424;-71
2023/11/05 06:32:40;;;;;;;1.23;0.40;;;;;;;;;;6259577;22;20064;-72
2023/11/05 06:35:07;;;;;;;1.08;0.40;;;;;;;;;;6261140;22;20588;-70
2023/11/05 06:37:32;;;;;;;2.58;0.70;;;;;;;;;;6261465;22;19999;-71
2023/11/05 06:40:00;;;;;;;2.08;0.63;;;;;;;;;;6260351;22;20060;-69
2023/11/05 06:42:25;;;;;;;1.13;0.50;;;;;;;;;;6289149;22;20030;-73
2023/11/05 06:44:53;;;;;;;1.35;0.47;;;;;;;;;;6286422;22;20064;-71
2023/11/05 06:47:18;;;;;;;1.45;0.40;;;;;;;;;;6286432;22;20046;-74
2023/11/05 06:49:43;;;;;;;1.75;0.50;;;;;;;;;;6256352;22;20026;-72
2023/11/05 06:52:09;;;;;;;1.98;0.50;;;;;;;;;;6286955;22;19999;-73
2023/11/05 06:54:36;;;;;;;1.35;0.50;;;;;;;;;;6285141;22;20010;-71
2023/11/05 06:57:05;;;;;;;2.45;0.70;;;;;;;;;;6258712;22;20007;-72
2023/11/05 06:59:30;;;;;;;2.33;0.85;;;;;;;;;;6288889;22;19995;-71
2023/11/05 07:01:55;;;;;;;2.72;0.80;;;;;;;;;;6286407;22;20093;-72
2023/11/05 07:04:21;;;;;;;5.25;1.00;;;;;;;;;;6263466;22;20010;-70
2023/11/05 07:06:49;;;;;;;2.80;0.90;;;;;;;;;;6257314;22;20003;-71
2023/11/05 07:09:15;;;;;;;3.20;1.08;;;;;;;;;;6261195;22;20003;-71
2023/11/05 07:11:40;;;;;;;3.70;1.20;;;;;;;;;;6287146;22;19999;-71
2023/11/05 07:14:06;;;;;;;3.50;1.30;;;;;;;;;;6288574;22;20014;-72
2023/11/05 07:16:31;;;;;;;3.50;1.10;;;;;;;;;;6262474;22;20098;-71
2023/11/05 07:18:57;;;;;;;3.22;1.02;;;;;;;;;;6261138;22;20709;-72
2023/11/05 07:21:22;;;;;;;3.67;1.10;;;;;;;;;;6289978;22;20092;-72
2023/11/05 07:23:47;;;;;;;5.65;1.50;;;;;;;;;;6288771;22;20133;-71
2023/11/05 07:26:15;;;;;;;3.30;1.05;;;;;;;;;;6262049;22;20328;-71
2023/11/05 07:28:44;;;;;;;4.47;1.40;;;;;;;;;;6261759;22;20565;-71
2023/11/05 07:31:16;;;;;;;5.10;1.20;;;;;;;;;;6287984;22;19999;-70
2023/11/05 07:33:45;;;;;;;4.10;1.30;;;;;;;;;;6288746;22;20527;-70
2023/11/05 07:36:10;;;;;;;3.72;1.23;;;;;;;;;;6287519;22;20089;-72
2023/11/05 07:38:35;;;;;;;3.55;1.20;;;;;;;;;;6287963;22;20036;-71
2023/11/05 07:41:01;;;;;;;3.80;1.23;;;;;;;;;;6289385;22;20018;-71
2023/11/05 07:43:26;;;;;;;4.10;1.23;;;;;;;;;;6257787;22;20429;-71
2023/11/05 07:45:51;;;;;;;4.00;1.27;;;;;;;;;;6289451;22;20003;-70
2023/11/05 07:48:17;;;;;;;2.90;1.10;;;;;;;;;;6286509;22;19995;-71
2023/11/05 07:50:42;;;;;;;3.17;1.10;;;;;;;;;;6260887;22;19999;-71
2023/11/05 07:53:10;;;;;;;2.45;0.90;;;;;;;;;;6286430;22;20510;-72
2023/11/05 07:55:37;;;;;;;3.17;0.95;;;;;;;;;;6259914;22;20007;-70
2023/11/05 07:58:07;;;;;;;3.13;1.02;;;;;;;;;;6260815;22;20078;-71
2023/11/05 08:00:32;;;;;;;3.28;1.05;;;;;;;;;;6288156;22;20007;-70
2023/11/05 08:02:58;;;;;;;3.70;1.17;;;;;;;;;;6259741;22;20099;-70
2023/11/05 08:05:26;;;;;;;2.78;0.90;;;;;;;;;;6288431;22;19995;-71
2023/11/05 08:07:51;;;;;;;2.65;0.90;;;;;;;;;;6288598;22;19999;-71
2023/11/05 08:10:19;;;;;;;2.88;0.80;;;;;;;;;;6259323;22;20665;-71
2023/11/05 08:12:44;;;;;;;2.55;0.88;;;;;;;;;;6288026;22;20811;-71
2023/11/05 08:15:13;;;;;;;3.53;1.10;;;;;;;;;;6259652;22;20102;-70
2023/11/05 08:17:41;;;;;;;3.67;1.20;;;;;;;;;;6260025;22;20045;-71
2023/11/05 08:20:06;;;;;;;3.28;1.20;;;;;;;;;;6262472;22;19996;-70
2023/11/05 08:22:32;;;;;;;4.18;1.50;;;;;;;;;;6288091;22;20446;-71
2023/11/05 08:24:58;;;;;;;5.85;2.85;;;;;;;;;;6290251;22;19995;-71
2023/11/05 08:27:23;;;;;;;13.07;6.60;;;;;;;;;;6258760;22;20009;-70
2023/11/05 08:29:48;;;;;;;18.80;8.82;;;;;;;;;;6263785;22;20014;-70
2023/11/05 08:32:14;;;;;;;10.05;4.50;;;;;;;;;;6260613;22;20515;-70
2023/11/05 08:34:39;;;;;;;3.97;1.30;;;;;;;;;;6261634;22;20033;-72
2023/11/05 08:37:07;;;;;;;3.95;1.05;;;;;;;;;;6289478;22;20022;-71
2023/11/05 08:39:34;;;;;;;2.97;1.10;;;;;;;;;;6288415;22;20608;-71
2023/11/05 08:42:00;;;;;;;2.03;0.70;;;;;;;;;;6260209;22;20027;-70
2023/11/05 08:44:25;;;;;;;2.60;0.80;;;;;;;;;;6259139;22;20003;-71
2023/11/05 08:46:51;;;;;;;2.35;0.80;;;;;;;;;;6289546;22;20070;-71
2023/11/05 08:49:16;;;;;;;2.42;0.73;;;;;;;;;;6289348;22;20328;-71
2023/11/05 08:51:42;;;;;;;2.42;0.70;;;;;;;;;;6289523;22;19995;-71
2023/11/05 08:54:08;;;;;;;3.83;1.30;;;;;;;;;;6260326;22;19999;-71
2023/11/05 08:56:33;;;;;;;3.25;1.10;;;;;;;;;;6262399;22;20026;-72
2023/11/05 08:59:00;;;;;;;3.50;1.20;;;;;;;;;;6290037;22;20014;-71
2023/11/05 09:01:28;;;;;;;2.42;1.00;;;;;;;;;;6288124;22;20025;-70
2023/11/05 09:03:54;;;;;;;1.73;0.80;;;;;;;;;;6288952;22;20015;-70
2023/11/05 09:06:20;;;;;;;5.57;1.10;;;;;;;;;;6259797;22;20011;-70
2023/11/05 09:08:45;;;;;;;2.67;0.90;;;;;;;;;;6288520;22;20056;-71
2023/11/05 09:11:11;;;;;;;3.28;1.00;;;;;;;;;;6289654;22;20518;-71
2023/11/05 09:13:36;;;;;;;2.47;0.90;;;;;;;;;;6286994;22;20002;-71
2023/11/05 09:16:06;;;;;;;2.55;0.90;;;;;;;;;;6261080;22;20038;-71
2023/11/05 09:18:31;;;;;;;2.78;0.80;;;;;;;;;;6285527;22;20015;-72
2023/11/05 09:20:57;;;;;;;2.88;1.00;;;;;;;;;;6286361;22;20375;-71
2023/11/05 09:23:22;;;;;;;2.63;0.88;;;;;;;;;;6258246;22;20613;-71
2023/11/05 09:25:48;;;;;;;2.45;0.82;;;;;;;;;;6262394;22;20041;-71
2023/11/05 09:28:13;;;;;;;2.85;0.80;;;;;;;;;;6287697;22;20351;-71
2023/11/05 09:30:39;;;;;;;2.47;0.73;;;;;;;;;;6289194;22;20010;-72
2023/11/05 09:33:05;;;;;;;3.15;0.95;;;;;;;;;;6259785;22;20007;-71
2023/11/05 09:35:30;;;;;;;3.15;1.10;;;;;;;;;;6289037;22;20007;-70
2023/11/05 09:37:56;;;;;;;3.55;1.23;;;;;;;;;;6286155;22;20616;-71
2023/11/05 09:40:21;;;;;;;2.22;0.80;;;;;;;;;;6287269;22;20398;-72
2023/11/05 09:42:46;;;;;;;2.50;0.73;;;;;;;;;;6283946;22;20403;-71
2023/11/05 09:45:12;;;;;;;4.30;1.80;;;;;;;;;;6288443;22;20044;-72
2023/11/05 09:47:40;;;;;;;3.92;1.30;;;;;;;;;;6284812;22;20045;-72
2023/11/05 09:50:06;;;;;;;3.30;1.10;;;;;;;;;;6287310;22;20628;-71
2023/11/05 09:52:31;;;;;;;2.38;0.60;;;;;;;;;;6286441;22;20068;-71
2023/11/05 09:54:58;;;;;;;2.13;0.77;;;;;;;;;;6260235;22;20400;-71
2023/11/05 09:57:23;;;;;;;1.83;0.60;;;;;;;;;;6263427;22;20041;-71
2023/11/05 09:59:48;;;;;;;3.20;0.60;;;;;;;;;;6286714;22;20023;-71
2023/11/05 10:02:17;;;;;;;2.13;0.70;;;;;;;;;;6257556;22;19996;-71
2023/11/05 10:04:43;;;;;;;1.27;0.50;;;;;;;;;;6285885;22;20064;-70
2023/11/05 10:07:08;;;;;;;1.95;0.52;;;;;;;;;;6288980;22;20011;-71
2023/11/05 10:09:36;;;;;;;2.28;0.60;;;;;;;;;;6287014;22;20169;-71
2023/11/05 10:12:03;;;;;;;2.03;0.68;;;;;;;;;;6259136;22;20002;-71
2023/11/05 10:14:28;;;;;;;3.67;0.70;;;;;;;;;;6288136;22;20181;-71
2023/11/05 10:16:54;;;;;;;2.15;0.90;;;;;;;;;;6262376;22;20007;-71
2023/11/05 10:19:19;;;;;;;3.33;1.08;;;;;;;;;;6288811;22;19999;-68
2023/11/05 10:21:45;;;;;;;3.10;0.90;;;;;;;;;;6288578;22;20006;-68
2023/11/05 10:24:11;;;;;;;2.53;0.70;;;;;;;;;;6261966;22;20026;-67
2023/11/05 10:26:36;;;;;;;2.80;0.60;;;;;;;;;;6287626;22;20650;-67
2023/11/05 10:29:02;;;;;;;2.00;0.60;;;;;;;;;;6261379;22;19999;-68
2023/11/05 10:31:28;;;;;;;1.95;0.60;;;;;;;;;;6256291;22;19999;-67
2023/11/05 10:33:54;;;;;;;2.63;0.65;;;;;;;;;;6287604;22;19995;-68
2023/11/05 10:36:25;;;;;;;2.33;0.70;;;;;;;;;;6285459;22;20802;-68
2023/11/05 10:38:54;;;;;;;3.08;0.93;;;;;;;;;;6286221;22;19999;-70
2023/11/05 10:41:20;;;;;;;2.77;1.00;;;;;;;;;;6254307;22;20007;-71
2023/11/05 10:43:49;;;;;;;2.55;0.80;;;;;;;;;;6251580;22;19995;-70
2023/11/05 10:46:18;;;;;;;2.53;0.60;;;;;;;;;;6249908;22;20102;-70
2023/11/05 10:48:45;;;;;;;2.20;0.70;;;;;;;;;;6250385;22;20110;-69
2023/11/05 10:51:11;;;;;;;2.10;0.80;;;;;;;;;;6253149;22;20010;-68
2023/11/05 10:53:36;;;;;;;2.65;0.90;;;;;;;;;;6250191;22;19999;-69
2023/11/05 10:56:21;;;;;;;2.58;0.85;;;;;;;;;;6252725;22;20042;-68
2023/11/05 10:58:47;;;;;;;2.80;0.70;;;;;;;;;;6279462;22;20370;-69
2023/11/05 11:01:16;;;;;;;3.85;0.95;;;;;;;;;;6248631;22;20451;-70
2023/11/05 11:03:42;;;;;;;2.80;0.75;;;;;;;;;;6277505;22;19995;-69
2023/11/05 11:06:07;;;;;;;1.30;0.50;;;;;;;;;;6278062;22;20027;-69
2023/11/05 11:08:35;;;;;;;0.80;0.40;;;;;;;;;;6254473;22;20961;-69
2023/11/05 11:11:08;;;;;;;3.13;0.90;;;;;;;;;;6248357;22;20011;-70
2023/11/05 11:13:34;;;;;;;1.98;0.68;;;;;;;;;;6252351;22;19999;-70
2023/11/05 11:16:03;;;;;;;2.30;0.60;;;;;;;;;;6249995;22;20018;-69
2023/11/05 11:18:31;;;;;;;2.28;0.60;;;;;;;;;;6278714;22;20281;-69
2023/11/05 11:20:57;;;;;;;1.48;0.50;;;;;;;;;;6251000;22;20065;-68
2023/11/05 11:23:23;;;;;;;1.80;0.50;;;;;;;;;;6251807;22;20104;-70
2023/11/05 11:26:01;;;;;;;1.98;0.50;;;;;;;;;;6251071;22;20003;-69
2023/11/05 11:28:28;;;;;;;1.27;0.40;;;;;;;;;;6273571;22;20030;-68
2023/11/05 11:30:53;;;;;;;1.92;0.70;;;;;;;;;;6282603;22;19992;-68
2023/11/05 11:33:19;;;;;;;1.40;0.55;;;;;;;;;;6252001;22;20069;-68
2023/11/05 11:35:51;;;;;;;1.30;0.40;;;;;;;;;;6252734;22;20015;-68
2023/11/05 11:38:16;;;;;;;2.22;0.70;;;;;;;;;;6279445;22;20041;-67
2023/11/05 11:40:42;;;;;;;1.20;0.50;;;;;;;;;;6283336;22;20051;-68
2023/11/05 11:43:07;;;;;;;1.00;0.40;;;;;;;;;;6278910;22;20607;-67
2023/11/05 11:45:35;;;;;;;1.67;0.45;;;;;;;;;;6248947;22;20003;-67
2023/11/05 11:48:03;;;;;;;2.92;0.55;;;;;;;;;;6255324;22;20023;-68
2023/11/05 11:50:29;;;;;;;1.60;0.50;;;;;;;;;;6250820;22;20110;-68
2023/11/05 11:52:57;;;;;;;1.05;0.50;;;;;;;;;;6255386;22;20083;-67
2023/11/05 11:55:24;;;;;;;1.25;0.50;;;;;;;;;;6279634;22;20003;-67
2023/11/05 11:57:49;;;;;;;1.38;0.50;;;;;;;;;;6254216;22;20068;-67
2023/11/05 12:00:15;;;;;;;1.38;0.43;;;;;;;;;;6279995;22;19995;-67
2023/11/05 12:02:46;;;;;;;1.35;0.47;;;;;;;;;;6252839;22;19999;-67
2023/11/05 12:05:12;;;;;;;1.25;0.43;;;;;;;;;;6279575;22;20038;-66
2023/11/05 12:07:44;;;;;;;1.95;0.50;;;;;;;;;;6250041;22;20460;-67
2023/11/05 12:10:12;;;;;;;2.17;0.60;;;;;;;;;;6281195;22;20660;-67
2023/11/05 12:12:39;;;;;;;3.28;1.00;;;;;;;;;;6253062;22;20003;-68
2023/11/05 12:15:10;;;;;;;2.53;0.60;;;;;;;;;;6282253;22;20002;-67
2023/11/05 12:17:36;;;;;;;1.38;0.43;;;;;;;;;;6279352;22;19996;-68
2023/11/05 12:20:01;;;;;;;1.52;0.50;;;;;;;;;;6250052;22;20006;-67
2023/11/05 12:22:26;;;;;;;1.92;0.47;;;;;;;;;;6278149;22;19999;-67
2023/11/05 12:24:51;;;;;;;1.52;0.50;;;;;;;;;;6276945;22;20006;-67
2023/11/05 12:27:19;;;;;;;1.73;0.52;;;;;;;;;;6279914;22;20446;-68
2023/11/05 12:29:44;;;;;;;1.38;0.40;;;;;;;;;;6249120;22;20447;-67
2023/11/05 12:32:10;;;;;;;1.65;0.43;;;;;;;;;;6280321;22;20022;-67
2023/11/05 12:34:35;;;;;;;1.38;0.40;;;;;;;;;;6249719;22;20314;-67
2023/11/05 12:37:00;;;;;;;1.10;0.40;;;;;;;;;;6251888;22;20011;-67
2023/11/05 12:39:28;;;;;;;0.52;0.20;;;;;;;;;;6250396;22;20718;-67
2023/11/05 12:41:54;;;;;;;1.77;0.50;;;;;;;;;;6281644;22;19995;-68
2023/11/05 12:44:21;;;;;;;2.17;0.60;;;;;;;;;;6278130;22;20029;-65
2023/11/05 12:46:49;;;;;;;1.00;0.40;;;;;;;;;;6247813;22;20030;-68
2023/11/05 12:49:14;;;;;;;0.80;0.40;;;;;;;;;;6278332;22;20452;-69
2023/11/05 12:51:40;;;;;;;1.25;0.47;;;;;;;;;;6254487;22;20023;-69
2023/11/05 12:54:06;;;;;;;0.60;0.30;;;;;;;;;;6251469;22;20028;-68
2023/11/05 12:56:31;;;;;;;1.63;0.43;;;;;;;;;;6282106;22;20051;-68
2023/11/05 12:58:56;;;;;;;0.73;0.28;;;;;;;;;;6251869;22;20007;-69
2023/11/05 13:01:22;;;;;;;0.90;0.30;;;;;;;;;;6253083;22;20006;-69
2023/11/05 13:03:47;;;;;;;1.45;0.38;;;;;;;;;;6281578;22;20074;-69
2023/11/05 13:06:15;;;;;;;1.40;0.45;;;;;;;;;;6256254;22;20014;-69
2023/11/05 13:08:40;;;;;;;3.30;0.95;;;;;;;;;;6283002;22;20061;-69
2023/11/05 13:11:05;;;;;;;1.35;0.40;;;;;;;;;;6281648;22;20420;-69
2023/11/05 13:13:31;;;;;;;1.05;0.40;;;;;;;;;;6281641;22;20003;-69
2023/11/05 13:15:56;;;;;;;1.50;0.40;;;;;;;;;;6257890;22;20011;-69
2023/11/05 13:18:23;;;;;;;1.42;0.50;;;;;;;;;;6281929;22;20259;-69
2023/11/05 13:20:50;;;;;;;1.25;0.40;;;;;;;;;;6282306;22;20006;-69
2023/11/05 13:23:15;;;;;;;1.27;0.40;;;;;;;;;;6280866;22;20321;-70
2023/11/05 13:25:43;;;;;;;2.03;0.40;;;;;;;;;;6280046;22;20752;-69
2023/11/05 13:28:09;;;;;;;1.80;0.60;;;;;;;;;;6254752;22;20006;-69
2023/11/05 13:30:34;;;;;;;2.50;0.60;;;;;;;;;;6253507;22;19995;-69
2023/11/05 13:33:00;;;;;;;2.20;0.65;;;;;;;;;;6283579;22;19999;-70
2023/11/05 13:35:26;;;;;;;3.08;0.52;;;;;;;;;;6280256;22;20026;-69
2023/11/05 13:37:53;;;;;;;2.25;0.70;;;;;;;;;;6256765;22;20358;-70
2023/11/05 13:40:20;;;;;;;1.80;0.50;;;;;;;;;;6254540;22;19999;-70
2023/11/05 13:42:45;;;;;;;1.10;0.40;;;;;;;;;;6256604;22;19999;-70
2023/11/05 13:45:13;;;;;;;1.05;0.52;;;;;;;;;;6253037;22;19999;-70
2023/11/05 13:47:39;;;;;;;1.20;0.40;;;;;;;;;;6283496;22;20133;-70
2023/11/05 13:50:07;;;;;;;1.92;0.40;;;;;;;;;;6253639;22;20441;-70
2023/11/05 13:52:32;;;;;;;1.30;0.50;;;;;;;;;;6253592;22;20009;-69
2023/11/05 13:55:00;;;;;;;1.70;0.50;;;;;;;;;;6281339;22;19995;-69
2023/11/05 13:57:25;;;;;;;1.20;0.40;;;;;;;;;;6278551;22;20018;-70
2023/11/05 13:59:51;;;;;;;1.90;0.60;;;;;;;;;;6249335;22;20003;-70
2023/11/05 14:02:19;;;;;;;1.13;0.50;;;;;;;;;;6249912;22;20424;-70
2023/11/05 14:04:47;;;;;;;1.52;0.50;;;;;;;;;;6252614;22;20436;-70
2023/11/05 14:07:15;;;;;;;2.22;0.65;;;;;;;;;;6278474;22;19999;-70
2023/11/05 14:09:41;;;;;;;1.87;0.50;;;;;;;;;;6252984;22;20048;-70
2023/11/05 14:12:09;;;;;;;4.32;1.40;;;;;;;;;;6277022;22;19995;-71
2023/11/05 14:14:35;;;;;;;3.95;1.15;;;;;;;;;;6278718;22;19999;-71
2023/11/05 14:17:00;;;;;;;2.53;0.90;;;;;;;;;;6251059;22;20086;-69
2023/11/05 14:19:27;;;;;;;2.65;0.63;;;;;;;;;;6251567;22;20125;-70
2023/11/05 14:21:55;;;;;;;1.58;0.50;;;;;;;;;;6280164;22;20475;-70
2023/11/05 14:24:23;;;;;;;2.17;0.68;;;;;;;;;;6250870;22;20026;-70
2023/11/05 14:26:48;;;;;;;2.80;0.73;;;;;;;;;;6253293;22;19999;-70
2023/11/05 14:29:13;;;;;;;2.15;0.60;;;;;;;;;;6281445;22;20003;-71
2023/11/05 14:31:43;;;;;;;2.40;0.70;;;;;;;;;;6252045;22;20072;-70
2023/11/05 14:34:08;;;;;;;2.22;0.65;;;;;;;;;;6253613;22;20010;-70
2023/11/05 14:36:33;;;;;;;2.25;0.77;;;;;;;;;;6251541;22;20007;-70